CDT,Max TemperatureF,Mean TemperatureF,Min TemperatureF,Max Dew PointF,MeanDew PointF,Min DewpointF,Max Humidity, Mean Humidity, Min Humidity, Max Sea Level PressureIn, Mean Sea Level PressureIn, Min Sea Level PressureIn, Max VisibilityMiles, Mean VisibilityMiles, Min VisibilityMiles, Max Wind SpeedMPH, Mean Wind SpeedMPH, Max Gust SpeedMPH,PrecipitationIn, CloudCover, Events, WindDirDegrees
2013-8-1,87,78,69,72,69,66,94,77,49,30.02,29.98,29.95,10,9,0,10,4,16,0.00,4,,309
2013-8-2,87,76,66,70,65,63,94,71,43,30.05,30.02,29.97,10,8,4,7,1,,0.00,0,,310
2013-8-3,86,75,64,73,68,61,94,83,62,30.09,30.05,30.02,10,9,6,15,1,25,0.29,1,Thunderstorm,236
2013-8-4,87,79,69,73,70,64,94,76,55,30.08,30.05,30.00,10,9,3,12,3,,0.14,4,,334
2013-8-5,84,75,66,68,65,63,94,73,51,30.08,30.04,29.99,10,10,7,7,1,,0.00,1,,319
2013-8-6,82,76,69,73,69,66,94,83,70,30.05,29.99,29.96,10,10,6,6,1,,0.10,4,Thunderstorm,49
2013-8-7,89,79,69,73,70,64,94,81,55,30.05,30.00,29.96,10,9,2,17,1,26,0.61,3,Thunderstorm,154
2013-8-8,87,78,68,77,70,66,94,80,62,30.06,30.01,29.97,10,9,0,12,2,,0.04,3,,132
2013-8-9,89,79,69,73,71,66,94,78,52,30.10,30.05,30.01,10,9,0,7,1,,0.00,2,,195
2013-8-10,86,78,71,75,71,68,94,85,62,30.14,30.11,30.07,10,10,5,16,1,21,0.49,2,Thunderstorm,295
2013-8-11,89,79,69,75,70,66,94,79,55,30.17,30.13,30.08,10,9,0,13,1,,0.53,3,Thunderstorm,230
2013-8-12,89,80,71,73,71,68,94,78,55,30.13,30.08,30.00,10,8,0,12,2,20,0.53,3,Thunderstorm,233
2013-8-13,87,79,71,72,70,68,89,76,55,30.02,29.96,29.90,10,10,10,9,5,,0.00,2,,260
2013-8-14,82,74,66,70,65,61,94,75,48,30.02,29.98,29.93,10,10,7,12,3,,0.00,1,,22
2013-8-15,77,70,64,64,62,57,88,77,61,30.07,30.03,29.99,10,10,9,13,4,17,0.00,7,,85
2013-8-16,71,68,66,63,61,45,88,78,46,30.11,30.07,30.03,10,10,5,12,7,,0.00,8,,77
2013-8-17,69,68,66,64,62,61,94,84,78,30.13,30.09,30.05,10,10,5,10,6,,0.00,8,,82
2013-8-18,75,70,66,70,67,64,94,89,73,30.18,30.13,30.08,10,9,2,7,4,,0.39,5,,79
2013-8-19,84,76,69,73,69,66,94,82,58,30.13,30.08,30.02,10,10,4,12,4,,0.21,5,,98
2013-8-20,80,74,69,75,71,68,94,86,74,30.16,30.11,30.07,10,9,2,8,3,,0.06,4,Thunderstorm,61
2013-8-21,87,79,69,72,70,68,94,81,55,30.21,30.15,30.10,10,9,3,10,1,16,0.00,3,Thunderstorm,147
2013-8-22,89,78,68,73,70,64,94,81,43,30.18,30.12,30.05,10,10,0,10,1,,0.00,2,Thunderstorm,297
2013-8-23,89,79,69,72,70,68,100,79,49,30.10,30.05,29.99,10,8,0,9,1,,0.01,4,Thunderstorm,17
2013-8-24,87,78,69,72,69,66,94,78,55,30.23,30.14,30.06,10,9,5,10,3,,0.02,2,Thunderstorm,80
2013-8-25,86,75,64,66,64,61,94,71,45,30.34,30.28,30.23,10,10,7,15,4,20,0.00,1,,89
2013-8-26,84,72,60,64,61,55,94,71,42,30.32,30.25,30.17,10,10,5,12,2,,0.00,0,,74
2013-8-27,86,73,60,70,63,57,94,75,45,30.18,30.13,30.07,10,10,6,8,1,,0.00,1,,340
2013-8-28,87,76,64,72,66,63,94,74,46,30.09,30.06,30.01,10,10,7,7,1,,0.00,0,,308
2013-8-29,91,80,68,72,68,64,94,73,43,30.08,30.02,29.97,10,9,4,9,2,16,0.00,1,,317
2013-8-30,91,81,71,73,71,66,94,83,52,30.03,29.98,29.93,10,9,3,16,1,29,0.46,2,Thunderstorm,5
2013-8-31,91,81,71,73,72,68,94,85,49,29.98,29.93,29.88,10,6,0,30,1,36,0.52,4,Thunderstorm,227